sensor_id;sensor_type;location;lat;lon;timestamp;pressure;altitude;pressure_sealevel;temperature;humidity
74218;BME280;62579;47.288;18.646;2022-12-29T00:02:10;100580.19;;;0.64;86.15
74218;BME280;62579;47.288;18.646;2022-12-29T00:04:36;100577.84;;;0.66;86.13
74218;BME280;62579;47.288;18.646;2022-12-29T00:07:01;100571.72;;;0.65;86.30
74218;BME280;62579;47.288;18.646;2022-12-29T00:09:30;100579.72;;;0.69;86.14
74218;BME280;62579;47.288;18.646;2022-12-29T00:11:55;100584.72;;;0.67;86.45
74218;BME280;62579;47.288;18.646;2022-12-29T00:14:20;100576.34;;;0.65;86.71
74218;BME280;62579;47.288;18.646;2022-12-29T00:17:05;100571.38;;;0.63;86.94
74218;BME280;62579;47.288;18.646;2022-12-29T00:19:30;100570.56;;;0.66;87.15
74218;BME280;62579;47.288;18.646;2022-12-29T00:22:15;100566.09;;;0.59;87.22
74218;BME280;62579;47.288;18.646;2022-12-29T00:24:59;100566.47;;;0.62;86.88
74218;BME280;62579;47.288;18.646;2022-12-29T00:27:34;100560.72;;;0.59;86.87
74218;BME280;62579;47.288;18.646;2022-12-29T00:30:20;100559.63;;;0.57;87.03
74218;BME280;62579;47.288;18.646;2022-12-29T00:33:15;100555.19;;;0.50;87.58
74218;BME280;62579;47.288;18.646;2022-12-29T00:36:18;100547.47;;;0.52;87.23
74218;BME280;62579;47.288;18.646;2022-12-29T00:38:54;100556.91;;;0.60;86.82
74218;BME280;62579;47.288;18.646;2022-12-29T00:41:39;100557.22;;;0.62;86.76
74218;BME280;62579;47.288;18.646;2022-12-29T00:44:23;100551.97;;;0.59;86.93
74218;BME280;62579;47.288;18.646;2022-12-29T00:46:48;100560.69;;;0.63;86.71
74218;BME280;62579;47.288;18.646;2022-12-29T00:49:14;100561.50;;;0.60;86.56
74218;BME280;62579;47.288;18.646;2022-12-29T00:52:10;100566.22;;;0.52;86.71
74218;BME280;62579;47.288;18.646;2022-12-29T00:54:54;100568.38;;;0.38;88.02
74218;BME280;62579;47.288;18.646;2022-12-29T00:57:19;100568.19;;;0.29;88.25
74218;BME280;62579;47.288;18.646;2022-12-29T00:59:44;100570.84;;;0.29;88.40
74218;BME280;62579;47.288;18.646;2022-12-29T01:02:10;100565.44;;;0.32;88.04
74218;BME280;62579;47.288;18.646;2022-12-29T01:04:36;100562.34;;;0.34;87.69
74218;BME280;62579;47.288;18.646;2022-12-29T01:07:01;100568.84;;;0.33;87.69
74218;BME280;62579;47.288;18.646;2022-12-29T01:09:27;100562.78;;;0.32;87.35
74218;BME280;62579;47.288;18.646;2022-12-29T01:12:11;100558.50;;;0.35;87.55
74218;BME280;62579;47.288;18.646;2022-12-29T01:14:37;100562.47;;;0.27;87.98
74218;BME280;62579;47.288;18.646;2022-12-29T01:17:03;100564.75;;;0.28;87.88
74218;BME280;62579;47.288;18.646;2022-12-29T01:19:29;100567.06;;;0.26;87.67
74218;BME280;62579;47.288;18.646;2022-12-29T01:21:54;100562.47;;;0.27;87.45
74218;BME280;62579;47.288;18.646;2022-12-29T01:24:20;100569.31;;;0.28;87.17
74218;BME280;62579;47.288;18.646;2022-12-29T01:26:46;100570.03;;;0.32;87.15
74218;BME280;62579;47.288;18.646;2022-12-29T01:29:11;100565.78;;;0.34;87.10
74218;BME280;62579;47.288;18.646;2022-12-29T01:31:37;100557.12;;;0.27;87.06
74218;BME280;62579;47.288;18.646;2022-12-29T01:34:03;100558.22;;;0.29;87.00
74218;BME280;62579;47.288;18.646;2022-12-29T01:36:28;100558.16;;;0.33;86.72
74218;BME280;62579;47.288;18.646;2022-12-29T01:38:55;100549.09;;;0.27;86.60
74218;BME280;62579;47.288;18.646;2022-12-29T01:41:20;100559.37;;;0.28;86.43
74218;BME280;62579;47.288;18.646;2022-12-29T01:43:50;100565.50;;;0.29;86.26
74218;BME280;62579;47.288;18.646;2022-12-29T01:46:26;100563.97;;;0.28;86.14
74218;BME280;62579;47.288;18.646;2022-12-29T01:48:58;100565.34;;;0.16;86.56
74218;BME280;62579;47.288;18.646;2022-12-29T01:51:26;100569.72;;;0.03;87.24
74218;BME280;62579;47.288;18.646;2022-12-29T01:53:53;100556.00;;;0.01;87.47
74218;BME280;62579;47.288;18.646;2022-12-29T01:56:20;100559.19;;;-0.08;87.90
74218;BME280;62579;47.288;18.646;2022-12-29T01:58:49;100558.03;;;-0.07;87.86
74218;BME280;62579;47.288;18.646;2022-12-29T02:01:19;100557.69;;;-0.09;87.86
74218;BME280;62579;47.288;18.646;2022-12-29T02:03:46;100562.69;;;-0.11;87.78
74218;BME280;62579;47.288;18.646;2022-12-29T02:06:21;100555.91;;;-0.19;87.76
74218;BME280;62579;47.288;18.646;2022-12-29T02:08:47;100553.41;;;-0.29;88.12
74218;BME280;62579;47.288;18.646;2022-12-29T02:11:15;100548.63;;;-0.41;88.61
74218;BME280;62579;47.288;18.646;2022-12-29T02:13:41;100538.44;;;-0.50;89.39
74218;BME280;62579;47.288;18.646;2022-12-29T02:21:52;100532.00;;;-0.29;88.07
74218;BME280;62579;47.288;18.646;2022-12-29T02:27:31;100507.50;;;-0.24;87.47
74218;BME280;62579;47.288;18.646;2022-12-29T02:33:03;100505.75;;;-0.34;87.40
74218;BME280;62579;47.288;18.646;2022-12-29T02:35:42;100511.03;;;-0.31;87.41
74218;BME280;62579;47.288;18.646;2022-12-29T02:41:31;100502.63;;;-0.56;87.35
74218;BME280;62579;47.288;18.646;2022-12-29T02:44:34;100503.44;;;-0.59;87.43
74218;BME280;62579;47.288;18.646;2022-12-29T02:52:27;100495.31;;;-0.52;87.98
74218;BME280;62579;47.288;18.646;2022-12-29T02:54:55;100499.16;;;-0.53;87.99
74218;BME280;62579;47.288;18.646;2022-12-29T02:59:46;100490.06;;;-0.59;88.34
74218;BME280;62579;47.288;18.646;2022-12-29T03:08:09;100497.66;;;-0.54;88.79
74218;BME280;62579;47.288;18.646;2022-12-29T03:13:44;100501.13;;;-0.57;88.87
74218;BME280;62579;47.288;18.646;2022-12-29T03:16:43;100491.25;;;-0.60;88.96
74218;BME280;62579;47.288;18.646;2022-12-29T03:19:15;100480.50;;;-0.56;88.99
74218;BME280;62579;47.288;18.646;2022-12-29T03:22:07;100483.06;;;-0.49;88.34
74218;BME280;62579;47.288;18.646;2022-12-29T03:25:05;100492.72;;;-0.59;88.89
74218;BME280;62579;47.288;18.646;2022-12-29T03:27:45;100483.38;;;-0.71;89.40
74218;BME280;62579;47.288;18.646;2022-12-29T03:30:13;100472.34;;;-0.73;89.98
74218;BME280;62579;47.288;18.646;2022-12-29T03:32:42;100469.12;;;-0.64;89.77
74218;BME280;62579;47.288;18.646;2022-12-29T03:35:12;100475.53;;;-0.58;89.62
74218;BME280;62579;47.288;18.646;2022-12-29T03:37:43;100473.97;;;-0.55;89.48
74218;BME280;62579;47.288;18.646;2022-12-29T03:40:11;100471.25;;;-0.52;89.10
74218;BME280;62579;47.288;18.646;2022-12-29T03:42:37;100457.84;;;-0.48;88.76
74218;BME280;62579;47.288;18.646;2022-12-29T03:45:04;100458.59;;;-0.48;88.51
74218;BME280;62579;47.288;18.646;2022-12-29T03:47:31;100456.28;;;-0.46;88.69
74218;BME280;62579;47.288;18.646;2022-12-29T03:49:56;100460.91;;;-0.50;88.82
74218;BME280;62579;47.288;18.646;2022-12-29T03:52:22;100463.53;;;-0.46;88.55
74218;BME280;62579;47.288;18.646;2022-12-29T03:54:47;100475.38;;;-0.47;88.01
74218;BME280;62579;47.288;18.646;2022-12-29T03:57:13;100472.03;;;-0.51;88.10
74218;BME280;62579;47.288;18.646;2022-12-29T03:59:38;100483.91;;;-0.56;88.38
74218;BME280;62579;47.288;18.646;2022-12-29T04:02:03;100478.06;;;-0.74;89.43
74218;BME280;62579;47.288;18.646;2022-12-29T04:04:29;100477.37;;;-0.78;89.93
74218;BME280;62579;47.288;18.646;2022-12-29T04:06:54;100481.41;;;-0.67;89.32
74218;BME280;62579;47.288;18.646;2022-12-29T04:09:19;100486.34;;;-0.65;89.12
74218;BME280;62579;47.288;18.646;2022-12-29T04:11:45;100493.72;;;-0.73;90.75
74218;BME280;62579;47.288;18.646;2022-12-29T04:14:10;100481.25;;;-0.83;90.13
74218;BME280;62579;47.288;18.646;2022-12-29T04:16:36;100474.63;;;-0.75;89.79
74218;BME280;62579;47.288;18.646;2022-12-29T04:19:06;100471.66;;;-0.80;90.24
74218;BME280;62579;47.288;18.646;2022-12-29T04:21:32;100480.09;;;-0.82;90.21
74218;BME280;62579;47.288;18.646;2022-12-29T04:23:58;100482.56;;;-0.68;88.98
74218;BME280;62579;47.288;18.646;2022-12-29T04:26:23;100480.84;;;-0.81;89.54
74218;BME280;62579;47.288;18.646;2022-12-29T04:28:48;100489.97;;;-0.79;88.92
74218;BME280;62579;47.288;18.646;2022-12-29T04:31:14;100488.22;;;-0.89;90.10
74218;BME280;62579;47.288;18.646;2022-12-29T04:33:39;100475.69;;;-0.95;90.35
74218;BME280;62579;47.288;18.646;2022-12-29T04:36:04;100468.66;;;-0.82;89.78
74218;BME280;62579;47.288;18.646;2022-12-29T04:38:30;100464.97;;;-0.92;90.58
74218;BME280;62579;47.288;18.646;2022-12-29T04:40:59;100474.84;;;-0.89;90.26
74218;BME280;62579;47.288;18.646;2022-12-29T04:43:25;100483.69;;;-0.92;90.26
74218;BME280;62579;47.288;18.646;2022-12-29T04:45:50;100475.69;;;-0.95;90.17
74218;BME280;62579;47.288;18.646;2022-12-29T04:48:16;100477.22;;;-0.94;90.04
74218;BME280;62579;47.288;18.646;2022-12-29T04:50:41;100485.53;;;-0.89;89.79
74218;BME280;62579;47.288;18.646;2022-12-29T04:53:07;100461.94;;;-0.94;89.78
74218;BME280;62579;47.288;18.646;2022-12-29T04:55:33;100472.53;;;-0.87;89.89
74218;BME280;62579;47.288;18.646;2022-12-29T04:57:58;100472.56;;;-0.90;89.84
74218;BME280;62579;47.288;18.646;2022-12-29T05:00:24;100480.31;;;-0.99;90.20
74218;BME280;62579;47.288;18.646;2022-12-29T05:02:50;100479.16;;;-0.98;89.95
74218;BME280;62579;47.288;18.646;2022-12-29T05:05:16;100482.16;;;-0.93;89.96
74218;BME280;62579;47.288;18.646;2022-12-29T05:07:41;100478.69;;;-0.90;89.79
74218;BME280;62579;47.288;18.646;2022-12-29T05:10:07;100476.50;;;-0.98;89.96
74218;BME280;62579;47.288;18.646;2022-12-29T05:12:34;100474.19;;;-0.96;90.06
74218;BME280;62579;47.288;18.646;2022-12-29T05:15:19;100470.06;;;-1.01;90.18
74218;BME280;62579;47.288;18.646;2022-12-29T05:17:44;100470.47;;;-1.02;90.18
74218;BME280;62579;47.288;18.646;2022-12-29T05:20:10;100465.84;;;-1.02;90.13
74218;BME280;62579;47.288;18.646;2022-12-29T05:22:35;100465.00;;;-0.95;90.43
74218;BME280;62579;47.288;18.646;2022-12-29T05:25:01;100472.56;;;-0.90;90.25
74218;BME280;62579;47.288;18.646;2022-12-29T05:27:26;100464.53;;;-0.87;90.12
74218;BME280;62579;47.288;18.646;2022-12-29T05:29:52;100460.28;;;-0.84;89.76
74218;BME280;62579;47.288;18.646;2022-12-29T05:32:17;100455.41;;;-0.89;90.11
74218;BME280;62579;47.288;18.646;2022-12-29T05:34:42;100452.75;;;-0.93;90.32
74218;BME280;62579;47.288;18.646;2022-12-29T05:37:08;100448.78;;;-0.81;89.47
74218;BME280;62579;47.288;18.646;2022-12-29T05:39:33;100458.41;;;-0.87;90.12
74218;BME280;62579;47.288;18.646;2022-12-29T05:41:58;100454.97;;;-0.88;90.04
74218;BME280;62579;47.288;18.646;2022-12-29T05:44:24;100442.06;;;-0.93;90.05
74218;BME280;62579;47.288;18.646;2022-12-29T05:46:49;100441.78;;;-0.98;90.88
74218;BME280;62579;47.288;18.646;2022-12-29T05:49:15;100452.47;;;-0.98;90.17
74218;BME280;62579;47.288;18.646;2022-12-29T05:51:41;100456.59;;;-0.94;90.13
74218;BME280;62579;47.288;18.646;2022-12-29T05:54:06;100452.91;;;-1.03;90.31
74218;BME280;62579;47.288;18.646;2022-12-29T05:56:31;100453.72;;;-1.06;90.53
74218;BME280;62579;47.288;18.646;2022-12-29T05:58:57;100454.78;;;-1.00;90.39
74218;BME280;62579;47.288;18.646;2022-12-29T06:01:22;100451.75;;;-1.02;90.03
74218;BME280;62579;47.288;18.646;2022-12-29T06:03:48;100453.25;;;-1.01;89.99
74218;BME280;62579;47.288;18.646;2022-12-29T06:06:13;100456.34;;;-1.03;89.80
74218;BME280;62579;47.288;18.646;2022-12-29T06:08:39;100452.00;;;-0.93;89.50
74218;BME280;62579;47.288;18.646;2022-12-29T06:11:04;100441.06;;;-1.02;89.56
74218;BME280;62579;47.288;18.646;2022-12-29T06:13:30;100443.66;;;-0.95;89.55
74218;BME280;62579;47.288;18.646;2022-12-29T06:15:55;100459.31;;;-0.97;89.82
74218;BME280;62579;47.288;18.646;2022-12-29T06:18:21;100443.28;;;-0.97;89.78
74218;BME280;62579;47.288;18.646;2022-12-29T06:20:46;100446.34;;;-0.99;89.75
74218;BME280;62579;47.288;18.646;2022-12-29T06:23:12;100452.41;;;-0.95;89.44
74218;BME280;62579;47.288;18.646;2022-12-29T06:25:38;100456.19;;;-0.92;89.02
74218;BME280;62579;47.288;18.646;2022-12-29T06:28:04;100463.03;;;-0.91;88.81
74218;BME280;62579;47.288;18.646;2022-12-29T06:30:33;100456.53;;;-0.90;89.05
74218;BME280;62579;47.288;18.646;2022-12-29T06:32:59;100455.84;;;-0.94;89.14
74218;BME280;62579;47.288;18.646;2022-12-29T06:35:25;100460.03;;;-0.93;89.22
74218;BME280;62579;47.288;18.646;2022-12-29T06:37:50;100462.31;;;-0.92;88.87
74218;BME280;62579;47.288;18.646;2022-12-29T06:40:16;100464.75;;;-1.04;89.01
74218;BME280;62579;47.288;18.646;2022-12-29T06:42:41;100470.81;;;-1.00;89.32
74218;BME280;62579;47.288;18.646;2022-12-29T06:45:07;100473.38;;;-0.93;89.16
74218;BME280;62579;47.288;18.646;2022-12-29T06:47:34;100474.13;;;-0.93;88.77
74218;BME280;62579;47.288;18.646;2022-12-29T06:50:00;100478.81;;;-1.00;89.03
74218;BME280;62579;47.288;18.646;2022-12-29T06:52:25;100477.97;;;-0.94;89.34
74218;BME280;62579;47.288;18.646;2022-12-29T06:54:51;100481.69;;;-0.88;89.33
74218;BME280;62579;47.288;18.646;2022-12-29T06:57:16;100486.66;;;-0.86;89.14
74218;BME280;62579;47.288;18.646;2022-12-29T06:59:42;100482.75;;;-0.82;89.16
74218;BME280;62579;47.288;18.646;2022-12-29T07:02:10;100489.56;;;-0.77;89.21
74218;BME280;62579;47.288;18.646;2022-12-29T07:04:36;100486.12;;;-0.78;88.86
74218;BME280;62579;47.288;18.646;2022-12-29T07:07:01;100494.87;;;-0.74;88.77
74218;BME280;62579;47.288;18.646;2022-12-29T07:09:26;100490.94;;;-0.66;88.71
74218;BME280;62579;47.288;18.646;2022-12-29T07:11:52;100490.91;;;-0.62;88.75
74218;BME280;62579;47.288;18.646;2022-12-29T07:14:17;100508.03;;;-0.59;88.46
74218;BME280;62579;47.288;18.646;2022-12-29T07:16:42;100498.03;;;-0.55;88.43
74218;BME280;62579;47.288;18.646;2022-12-29T07:19:08;100497.34;;;-0.59;88.77
74218;BME280;62579;47.288;18.646;2022-12-29T07:21:33;100495.03;;;-0.57;88.91
74218;BME280;62579;47.288;18.646;2022-12-29T07:23:58;100493.81;;;-0.53;88.74
74218;BME280;62579;47.288;18.646;2022-12-29T07:26:24;100486.19;;;-0.54;88.88
74218;BME280;62579;47.288;18.646;2022-12-29T07:28:49;100481.50;;;-0.47;89.06
74218;BME280;62579;47.288;18.646;2022-12-29T07:31:17;100494.44;;;-0.45;89.08
74218;BME280;62579;47.288;18.646;2022-12-29T07:33:44;100491.69;;;-0.38;89.15
74218;BME280;62579;47.288;18.646;2022-12-29T07:36:11;100492.75;;;-0.32;89.29
74218;BME280;62579;47.288;18.646;2022-12-29T07:38:36;100489.81;;;-0.18;91.09
74218;BME280;62579;47.288;18.646;2022-12-29T07:41:02;100483.66;;;-0.15;90.10
74218;BME280;62579;47.288;18.646;2022-12-29T07:43:27;100490.91;;;-0.16;89.70
74218;BME280;62579;47.288;18.646;2022-12-29T07:45:53;100487.69;;;-0.04;89.29
74218;BME280;62579;47.288;18.646;2022-12-29T07:48:19;100489.13;;;0.01;89.25
74218;BME280;62579;47.288;18.646;2022-12-29T07:50:44;100489.00;;;0.08;89.09
74218;BME280;62579;47.288;18.646;2022-12-29T07:53:09;100482.19;;;0.04;89.72
74218;BME280;62579;47.288;18.646;2022-12-29T07:55:35;100488.66;;;0.06;89.67
74218;BME280;62579;47.288;18.646;2022-12-29T07:58:00;100484.00;;;0.10;89.63
74218;BME280;62579;47.288;18.646;2022-12-29T08:00:26;100480.09;;;0.15;89.42
74218;BME280;62579;47.288;18.646;2022-12-29T08:02:52;100485.50;;;0.11;89.54
74218;BME280;62579;47.288;18.646;2022-12-29T08:05:17;100491.94;;;0.14;89.66
74218;BME280;62579;47.288;18.646;2022-12-29T08:07:43;100480.44;;;0.17;89.52
74218;BME280;62579;47.288;18.646;2022-12-29T08:10:09;100486.53;;;0.17;89.51
74218;BME280;62579;47.288;18.646;2022-12-29T08:12:35;100485.44;;;0.15;89.93
74218;BME280;62579;47.288;18.646;2022-12-29T08:15:00;100483.00;;;0.00;90.46
74218;BME280;62579;47.288;18.646;2022-12-29T08:17:26;100485.06;;;-0.07;91.40
74218;BME280;62579;47.288;18.646;2022-12-29T08:19:51;100484.75;;;0.11;90.40
74218;BME280;62579;47.288;18.646;2022-12-29T08:22:17;100490.03;;;0.14;90.11
74218;BME280;62579;47.288;18.646;2022-12-29T08:24:42;100477.84;;;0.13;89.87
74218;BME280;62579;47.288;18.646;2022-12-29T08:27:07;100476.59;;;0.18;89.75
74218;BME280;62579;47.288;18.646;2022-12-29T08:29:33;100477.34;;;0.18;89.99
74218;BME280;62579;47.288;18.646;2022-12-29T08:31:58;100476.59;;;0.18;89.85
74218;BME280;62579;47.288;18.646;2022-12-29T08:34:23;100476.25;;;0.16;89.85
74218;BME280;62579;47.288;18.646;2022-12-29T08:36:49;100474.59;;;0.22;89.84
74218;BME280;62579;47.288;18.646;2022-12-29T08:39:15;100461.97;;;0.22;89.75
74218;BME280;62579;47.288;18.646;2022-12-29T08:41:40;100458.28;;;0.36;89.25
74218;BME280;62579;47.288;18.646;2022-12-29T08:44:06;100459.66;;;0.44;89.19
74218;BME280;62579;47.288;18.646;2022-12-29T08:46:31;100463.72;;;0.52;89.24
74218;BME280;62579;47.288;18.646;2022-12-29T08:48:56;100459.09;;;0.33;90.72
74218;BME280;62579;47.288;18.646;2022-12-29T08:51:22;100456.41;;;0.33;91.14
74218;BME280;62579;47.288;18.646;2022-12-29T08:53:48;100453.34;;;0.54;90.54
74218;BME280;62579;47.288;18.646;2022-12-29T08:56:13;100456.09;;;0.50;90.89
74218;BME280;62579;47.288;18.646;2022-12-29T08:58:38;100458.56;;;0.41;90.98
74218;BME280;62579;47.288;18.646;2022-12-29T09:01:04;100457.31;;;0.46;91.63
74218;BME280;62579;47.288;18.646;2022-12-29T09:03:29;100454.56;;;0.49;91.68
74218;BME280;62579;47.288;18.646;2022-12-29T09:05:55;100456.50;;;0.69;90.72
74218;BME280;62579;47.288;18.646;2022-12-29T09:08:21;100457.66;;;0.68;91.06
74218;BME280;62579;47.288;18.646;2022-12-29T09:10:47;100460.13;;;0.39;92.25
74218;BME280;62579;47.288;18.646;2022-12-29T09:13:13;100465.78;;;0.44;92.38
74218;BME280;62579;47.288;18.646;2022-12-29T09:15:39;100468.44;;;0.44;92.86
74218;BME280;62579;47.288;18.646;2022-12-29T09:18:06;100457.31;;;0.46;93.04
74218;BME280;62579;47.288;18.646;2022-12-29T09:20:32;100453.87;;;0.65;92.70
74218;BME280;62579;47.288;18.646;2022-12-29T09:22:57;100442.72;;;0.86;92.35
74218;BME280;62579;47.288;18.646;2022-12-29T09:25:22;100443.16;;;0.65;92.95
74218;BME280;62579;47.288;18.646;2022-12-29T09:27:50;100447.94;;;0.93;92.28
74218;BME280;62579;47.288;18.646;2022-12-29T09:30:17;100438.41;;;1.08;91.89
74218;BME280;62579;47.288;18.646;2022-12-29T09:32:43;100443.25;;;0.97;91.94
74218;BME280;62579;47.288;18.646;2022-12-29T09:35:08;100432.28;;;1.08;91.89
74218;BME280;62579;47.288;18.646;2022-12-29T09:37:34;100434.06;;;0.98;92.36
74218;BME280;62579;47.288;18.646;2022-12-29T09:39:59;100429.28;;;1.06;92.55
74218;BME280;62579;47.288;18.646;2022-12-29T09:42:34;100424.94;;;1.12;92.65
74218;BME280;62579;47.288;18.646;2022-12-29T09:45:18;100427.53;;;0.99;92.42
74218;BME280;62579;47.288;18.646;2022-12-29T09:47:46;100424.88;;;1.15;92.18
74218;BME280;62579;47.288;18.646;2022-12-29T09:50:30;100419.84;;;1.17;91.99
74218;BME280;62579;47.288;18.646;2022-12-29T09:55:43;100416.59;;;1.26;92.02
74218;BME280;62579;47.288;18.646;2022-12-29T09:58:15;100409.53;;;1.16;92.19
74218;BME280;62579;47.288;18.646;2022-12-29T10:00:54;100418.75;;;1.15;91.82
74218;BME280;62579;47.288;18.646;2022-12-29T10:03:24;100418.06;;;1.43;91.31
74218;BME280;62579;47.288;18.646;2022-12-29T10:08:39;100406.00;;;1.19;91.75
74218;BME280;62579;47.288;18.646;2022-12-29T10:22:07;100401.31;;;1.55;90.89
74218;BME280;62579;47.288;18.646;2022-12-29T10:24:38;100391.25;;;1.59;90.85
74218;BME280;62579;47.288;18.646;2022-12-29T10:27:07;100398.50;;;1.75;90.55
74218;BME280;62579;47.288;18.646;2022-12-29T10:29:40;100401.69;;;1.70;90.54
74218;BME280;62579;47.288;18.646;2022-12-29T10:32:31;100399.66;;;1.61;90.68
74218;BME280;62579;47.288;18.646;2022-12-29T10:35:05;100396.59;;;1.59;90.42
74218;BME280;62579;47.288;18.646;2022-12-29T10:37:40;100392.69;;;1.64;90.42
74218;BME280;62579;47.288;18.646;2022-12-29T10:40:33;100380.44;;;1.63;90.58
74218;BME280;62579;47.288;18.646;2022-12-29T10:43:01;100377.97;;;1.85;90.05
74218;BME280;62579;47.288;18.646;2022-12-29T10:45:31;100372.87;;;2.03;89.14
74218;BME280;62579;47.288;18.646;2022-12-29T10:48:06;100369.63;;;1.95;89.68
74218;BME280;62579;47.288;18.646;2022-12-29T10:50:34;100371.31;;;1.89;89.80
74218;BME280;62579;47.288;18.646;2022-12-29T10:53:02;100373.47;;;1.94;90.02
74218;BME280;62579;47.288;18.646;2022-12-29T10:55:35;100371.16;;;2.09;89.32
74218;BME280;62579;47.288;18.646;2022-12-29T10:58:04;100370.09;;;2.06;89.21
74218;BME280;62579;47.288;18.646;2022-12-29T11:00:31;100358.56;;;1.93;89.68
74218;BME280;62579;47.288;18.646;2022-12-29T11:03:07;100362.28;;;2.12;89.10
74218;BME280;62579;47.288;18.646;2022-12-29T11:08:39;100362.44;;;2.33;87.99
74218;BME280;62579;47.288;18.646;2022-12-29T11:11:08;100365.75;;;2.25;88.73
74218;BME280;62579;47.288;18.646;2022-12-29T11:13:58;100361.12;;;2.25;88.63
74218;BME280;62579;47.288;18.646;2022-12-29T11:16:32;100368.12;;;2.35;88.27
74218;BME280;62579;47.288;18.646;2022-12-29T11:18:59;100359.06;;;2.29;88.88
74218;BME280;62579;47.288;18.646;2022-12-29T11:21:36;100350.59;;;2.31;88.70
74218;BME280;62579;47.288;18.646;2022-12-29T11:24:22;100334.81;;;2.20;89.11
74218;BME280;62579;47.288;18.646;2022-12-29T11:26:50;100329.44;;;2.33;89.08
74218;BME280;62579;47.288;18.646;2022-12-29T11:29:29;100332.44;;;2.35;88.82
74218;BME280;62579;47.288;18.646;2022-12-29T11:32:11;100329.22;;;2.27;89.02
74218;BME280;62579;47.288;18.646;2022-12-29T11:34:37;100327.41;;;2.37;89.18
74218;BME280;62579;47.288;18.646;2022-12-29T11:42:42;100314.66;;;2.66;88.55
74218;BME280;62579;47.288;18.646;2022-12-29T11:45:18;100322.72;;;2.66;88.52
74218;BME280;62579;47.288;18.646;2022-12-29T11:47:47;100309.38;;;2.63;88.72
74218;BME280;62579;47.288;18.646;2022-12-29T11:50:26;100317.97;;;2.58;88.85
74218;BME280;62579;47.288;18.646;2022-12-29T11:52:59;100320.75;;;2.67;88.67
74218;BME280;62579;47.288;18.646;2022-12-29T11:55:27;100334.41;;;2.72;88.53
74218;BME280;62579;47.288;18.646;2022-12-29T11:57:55;100333.62;;;2.97;87.04
74218;BME280;62579;47.288;18.646;2022-12-29T12:00:23;100323.88;;;2.90;87.51
74218;BME280;62579;47.288;18.646;2022-12-29T12:05:52;100332.09;;;3.21;86.99
74218;BME280;62579;47.288;18.646;2022-12-29T12:09:01;100317.69;;;3.15;87.16
74218;BME280;62579;47.288;18.646;2022-12-29T12:11:29;100301.44;;;3.19;86.95
74218;BME280;62579;47.288;18.646;2022-12-29T12:14:13;100304.22;;;3.28;86.54
74218;BME280;62579;47.288;18.646;2022-12-29T12:16:44;100309.81;;;3.33;86.58
74218;BME280;62579;47.288;18.646;2022-12-29T12:22:00;100303.88;;;3.26;87.57
74218;BME280;62579;47.288;18.646;2022-12-29T12:27:11;100296.59;;;3.26;88.24
74218;BME280;62579;47.288;18.646;2022-12-29T12:32:39;100294.50;;;3.43;87.21
74218;BME280;62579;47.288;18.646;2022-12-29T12:35:12;100283.63;;;3.34;87.54
74218;BME280;62579;47.288;18.646;2022-12-29T12:43:36;100278.72;;;3.54;86.94
74218;BME280;62579;47.288;18.646;2022-12-29T12:49:19;100277.19;;;3.66;86.65
74218;BME280;62579;47.288;18.646;2022-12-29T12:57:32;100277.87;;;3.57;86.75
74218;BME280;62579;47.288;18.646;2022-12-29T13:00:08;100272.09;;;3.46;87.21
74218;BME280;62579;47.288;18.646;2022-12-29T13:10:58;100288.25;;;3.68;86.94
74218;BME280;62579;47.288;18.646;2022-12-29T13:13:38;100284.53;;;3.74;86.95
74218;BME280;62579;47.288;18.646;2022-12-29T13:21:30;100283.66;;;3.55;87.99
74218;BME280;62579;47.288;18.646;2022-12-29T13:24:15;100291.19;;;3.39;88.77
74218;BME280;62579;47.288;18.646;2022-12-29T13:26:48;100288.47;;;3.60;88.09
74218;BME280;62579;47.288;18.646;2022-12-29T13:29:35;100284.50;;;3.65;87.97
74218;BME280;62579;47.288;18.646;2022-12-29T13:37:16;100296.75;;;3.66;87.85
74218;BME280;62579;47.288;18.646;2022-12-29T13:39:50;100295.47;;;3.71;87.89
74218;BME280;62579;47.288;18.646;2022-12-29T13:42:18;100294.31;;;3.81;87.62
74218;BME280;62579;47.288;18.646;2022-12-29T13:44:46;100294.25;;;3.93;87.00
74218;BME280;62579;47.288;18.646;2022-12-29T13:47:25;100293.19;;;3.91;86.80
74218;BME280;62579;47.288;18.646;2022-12-29T13:49:53;100288.69;;;3.88;86.92
74218;BME280;62579;47.288;18.646;2022-12-29T13:52:43;100282.38;;;3.82;87.48
74218;BME280;62579;47.288;18.646;2022-12-29T13:58:11;100291.31;;;4.00;86.57
74218;BME280;62579;47.288;18.646;2022-12-29T14:00:43;100284.41;;;3.99;86.78
74218;BME280;62579;47.288;18.646;2022-12-29T14:03:38;100283.25;;;4.00;86.64
74218;BME280;62579;47.288;18.646;2022-12-29T14:06:21;100291.75;;;3.99;86.57
74218;BME280;62579;47.288;18.646;2022-12-29T14:09:02;100291.50;;;3.84;87.40
74218;BME280;62579;47.288;18.646;2022-12-29T14:11:36;100290.12;;;3.80;87.72
74218;BME280;62579;47.288;18.646;2022-12-29T14:14:13;100289.06;;;3.77;87.57
74218;BME280;62579;47.288;18.646;2022-12-29T14:16:39;100286.75;;;3.67;88.05
74218;BME280;62579;47.288;18.646;2022-12-29T14:19:11;100283.81;;;3.74;88.12
74218;BME280;62579;47.288;18.646;2022-12-29T14:21:38;100293.16;;;3.82;87.75
74218;BME280;62579;47.288;18.646;2022-12-29T14:26:51;100298.88;;;3.93;87.05
74218;BME280;62579;47.288;18.646;2022-12-29T14:31:54;100295.75;;;3.94;86.63
74218;BME280;62579;47.288;18.646;2022-12-29T14:37:46;100285.88;;;3.91;86.53
74218;BME280;62579;47.288;18.646;2022-12-29T14:40:34;100290.38;;;3.94;86.63
74218;BME280;62579;47.288;18.646;2022-12-29T14:42:59;100293.19;;;3.91;86.68
74218;BME280;62579;47.288;18.646;2022-12-29T14:45:29;100293.75;;;3.86;86.64
74218;BME280;62579;47.288;18.646;2022-12-29T14:47:56;100292.56;;;3.87;86.28
74218;BME280;62579;47.288;18.646;2022-12-29T14:50:24;100300.28;;;3.76;86.45
74218;BME280;62579;47.288;18.646;2022-12-29T14:53:04;100305.88;;;3.69;86.55